Time;durP1;ratioP1;P1;durP2;ratioP2;P2;SDS_P1;SDS_P2;PMS_P1;PMS_P2;Temp;Humidity;BMP_temperature;BMP_pressure;BME280_temperature;BME280_humidity;BME280_pressure;Samples;Min_cycle;Max_cycle;Signal;HPM_P1;HPM_P2
2024/04/04 00:01:45;;;;;;;6.70;1.80;;;11.90;99.60;;;;;;5073647;28;20206;-57
2024/04/04 00:04:12;;;;;;;6.23;1.33;;;11.90;99.70;;;;;;5074166;28;20523;-56
2024/04/04 00:06:37;;;;;;;7.30;1.40;;;11.90;99.80;;;;;;5074008;28;20437;-57
2024/04/04 00:09:04;;;;;;;5.63;1.70;;;11.90;99.90;;;;;;5073494;28;20985;-57
2024/04/04 00:11:30;;;;;;;4.67;1.40;;;11.90;99.90;;;;;;5074065;28;20206;-56
2024/04/04 00:13:58;;;;;;;7.70;1.83;;;11.90;99.90;;;;;;5073238;28;20952;-57
2024/04/04 00:16:25;;;;;;;4.00;1.20;;;11.90;99.80;;;;;;5073677;28;20226;-56
2024/04/04 00:18:52;;;;;;;4.40;1.60;;;11.90;99.80;;;;;;5073523;28;20469;-58
2024/04/04 00:21:18;;;;;;;11.80;2.10;;;11.90;99.90;;;;;;5073398;28;20449;-57
2024/04/04 00:23:45;;;;;;;6.13;1.37;;;11.90;99.90;;;;;;5073396;28;20533;-57
2024/04/04 00:26:11;;;;;;;5.90;1.97;;;11.90;99.90;;;;;;5073538;28;20200;-57
2024/04/04 00:28:38;;;;;;;8.63;1.40;;;11.90;99.90;;;;;;5072999;28;20475;-58
2024/04/04 00:31:04;;;;;;;2.90;1.00;;;11.90;99.90;;;;;;5073448;28;20468;-57
2024/04/04 00:33:32;;;;;;;5.40;1.30;;;11.90;99.90;;;;;;5073354;28;20459;-56
2024/04/04 00:35:58;;;;;;;5.83;1.10;;;11.90;99.90;;;;;;5073228;28;20480;-57
2024/04/04 00:38:25;;;;;;;6.17;1.20;;;11.90;99.90;;;;;;5073530;28;20471;-57
2024/04/04 00:40:51;;;;;;;7.33;1.77;;;11.90;99.90;;;;;;5073246;28;20202;-58
2024/04/04 00:43:17;;;;;;;2.27;0.60;;;11.90;99.90;;;;;;5073107;28;20952;-56
2024/04/04 00:45:44;;;;;;;4.17;0.90;;;12.00;99.90;;;;;;5073249;28;20209;-56
2024/04/04 00:48:11;;;;;;;3.20;0.93;;;12.00;99.80;;;;;;5073072;28;20540;-56
2024/04/04 00:50:40;;;;;;;3.87;1.30;;;12.00;99.50;;;;;;5073176;28;20444;-57
2024/04/04 00:53:06;;;;;;;5.10;1.57;;;12.00;99.40;;;;;;5073041;28;20448;-57
2024/04/04 00:55:33;;;;;;;4.43;1.20;;;12.00;99.60;;;;;;5073177;28;20444;-57
2024/04/04 00:57:59;;;;;;;2.80;0.93;;;12.00;99.90;;;;;;5072885;28;20468;-56
2024/04/04 01:00:26;;;;;;;10.23;1.00;;;12.10;99.90;;;;;;5072663;28;20440;-57
2024/04/04 01:02:52;;;;;;;3.43;1.10;;;12.10;99.90;;;;;;5072909;28;20886;-59
2024/04/04 01:05:20;;;;;;;2.30;0.90;;;12.10;99.50;;;;;;5072775;28;20962;-57
2024/04/04 01:07:48;;;;;;;3.57;1.03;;;12.10;99.30;;;;;;5072932;28;20487;-57
2024/04/04 01:10:15;;;;;;;5.40;0.80;;;12.10;99.40;;;;;;5072799;28;20557;-56
2024/04/04 01:12:41;;;;;;;5.47;1.20;;;12.20;99.20;;;;;;5072557;28;20895;-57
2024/04/04 01:15:09;;;;;;;3.83;0.93;;;12.20;99.40;;;;;;5072578;28;20527;-57
2024/04/04 01:17:35;;;;;;;3.63;1.13;;;12.20;99.50;;;;;;5072403;28;20774;-57
2024/04/04 01:20:03;;;;;;;6.47;1.60;;;12.20;99.30;;;;;;5072704;28;20444;-57
2024/04/04 01:22:29;;;;;;;6.37;1.33;;;12.20;99.40;;;;;;5072709;28;20490;-56
2024/04/04 01:24:57;;;;;;;5.63;1.10;;;12.30;99.30;;;;;;5072676;28;20452;-57
2024/04/04 01:27:23;;;;;;;7.60;1.40;;;12.30;99.50;;;;;;5072595;28;20479;-56
2024/04/04 01:29:49;;;;;;;4.00;1.40;;;12.30;99.50;;;;;;5072667;28;20445;-57
2024/04/04 01:32:15;;;;;;;1.83;0.90;;;12.30;99.50;;;;;;5072723;28;20206;-56
2024/04/04 01:34:42;;;;;;;3.63;1.10;;;12.30;99.50;;;;;;5072393;28;20957;-57
2024/04/04 01:37:08;;;;;;;3.87;1.00;;;12.30;99.50;;;;;;5064131;28;20700;-56
2024/04/04 01:39:35;;;;;;;6.30;0.93;;;12.30;99.50;;;;;;5072578;28;20447;-56
2024/04/04 01:42:02;;;;;;;3.93;1.50;;;12.30;99.50;;;;;;5072557;28;20202;-57
2024/04/04 01:44:29;;;;;;;3.30;0.93;;;12.30;99.60;;;;;;5072663;28;20444;-57
2024/04/04 01:46:55;;;;;;;3.87;1.30;;;12.30;99.70;;;;;;5072322;28;20437;-58
2024/04/04 01:49:21;;;;;;;2.50;0.77;;;12.30;99.90;;;;;;5072515;28;20463;-56
2024/04/04 01:51:47;;;;;;;2.90;1.03;;;12.30;99.90;;;;;;5072684;28;20203;-57
2024/04/04 01:54:15;;;;;;;4.73;1.00;;;12.30;99.90;;;;;;5072604;28;20437;-56
2024/04/04 01:56:41;;;;;;;4.73;1.20;;;12.30;99.90;;;;;;5072294;28;20219;-57
2024/04/04 01:59:10;;;;;;;3.97;0.90;;;12.20;99.90;;;;;;5072320;28;20446;-56
2024/04/04 02:01:36;;;;;;;1.77;0.90;;;12.20;99.90;;;;;;5072169;28;20448;-57
2024/04/04 02:04:03;;;;;;;5.03;1.10;;;12.20;99.90;;;;;;5072112;28;20444;-57
2024/04/04 02:06:29;;;;;;;1.80;0.90;;;12.20;99.90;;;;;;5072121;28;20293;-57
2024/04/04 02:08:56;;;;;;;4.03;1.10;;;12.20;99.90;;;;;;5071906;28;20547;-58
2024/04/04 02:11:22;;;;;;;5.30;1.07;;;12.20;99.90;;;;;;5075117;28;20202;-57
2024/04/04 02:13:49;;;;;;;2.77;0.83;;;12.20;99.90;;;;;;5076165;28;20462;-57
2024/04/04 02:16:17;;;;;;;5.60;1.40;;;12.20;99.90;;;;;;5076139;28;20226;-57
2024/04/04 02:18:44;;;;;;;4.20;0.97;;;12.20;99.90;;;;;;5075940;28;20828;-57
2024/04/04 02:21:10;;;;;;;3.77;1.20;;;12.20;99.90;;;;;;5076080;28;20451;-58
2024/04/04 02:23:36;;;;;;;1.53;0.83;;;12.20;99.90;;;;;;5076006;28;20818;-58
2024/04/04 02:26:03;;;;;;;1.87;0.87;;;12.30;99.90;;;;;;5075871;28;20226;-58
2024/04/04 02:28:30;;;;;;;7.60;0.90;;;12.30;99.90;;;;;;5075637;28;20476;-58
2024/04/04 02:30:55;;;;;;;1.27;0.60;;;12.30;99.90;;;;;;5075764;28;20448;-60
2024/04/04 02:33:24;;;;;;;3.37;1.37;;;12.40;99.90;;;;;;5075925;28;20444;-58
2024/04/04 02:35:53;;;;;;;4.57;0.97;;;12.40;99.90;;;;;;5075465;28;20206;-58
2024/04/04 02:38:20;;;;;;;6.07;1.10;;;12.40;99.90;;;;;;5075363;28;20924;-58
2024/04/04 02:40:45;;;;;;;2.47;0.97;;;12.50;99.90;;;;;;5075555;28;20440;-58
2024/04/04 02:43:12;;;;;;;3.10;1.00;;;12.50;99.90;;;;;;5075712;28;20854;-58
2024/04/04 02:45:38;;;;;;;3.67;0.90;;;12.40;99.90;;;;;;5075708;28;20228;-57
2024/04/04 02:48:05;;;;;;;6.07;1.47;;;12.40;99.90;;;;;;5075051;28;20985;-58
2024/04/04 02:50:33;;;;;;;5.10;1.13;;;12.40;99.90;;;;;;5075331;28;20570;-57
2024/04/04 02:52:59;;;;;;;2.40;1.83;;;12.40;99.90;;;;;;5075351;28;20455;-58
2024/04/04 02:55:26;;;;;;;1.90;1.10;;;12.40;99.90;;;;;;5075215;28;20444;-57
2024/04/04 02:57:53;;;;;;;4.87;1.50;;;12.40;99.90;;;;;;5074966;28;20477;-57
2024/04/04 03:00:20;;;;;;;4.77;1.07;;;12.40;99.90;;;;;;5075039;28;20946;-57
2024/04/04 03:02:47;;;;;;;3.37;0.87;;;12.40;99.90;;;;;;5075190;28;20479;-58
2024/04/04 03:05:13;;;;;;;3.53;0.90;;;12.40;99.90;;;;;;5075441;28;20452;-58
2024/04/04 03:07:41;;;;;;;3.30;1.50;;;12.40;99.90;;;;;;5075409;28;20896;-58
2024/04/04 03:10:08;;;;;;;4.90;1.50;;;12.40;99.90;;;;;;5074981;28;20297;-57
2024/04/04 03:12:34;;;;;;;2.00;1.07;;;12.40;99.90;;;;;;5075229;28;20819;-57
2024/04/04 03:15:00;;;;;;;4.03;1.30;;;12.40;99.90;;;;;;5074764;28;20893;-58
2024/04/04 03:17:28;;;;;;;4.40;1.17;;;12.50;99.90;;;;;;5074930;28;20476;-57
2024/04/04 03:19:54;;;;;;;2.27;1.23;;;12.40;99.90;;;;;;5074756;28;20206;-57
2024/04/04 03:22:22;;;;;;;9.50;1.10;;;12.50;99.90;;;;;;5073787;28;20536;-57
2024/04/04 03:24:49;;;;;;;5.23;1.30;;;12.40;99.90;;;;;;5074946;28;20212;-58
2024/04/04 03:27:16;;;;;;;5.43;1.50;;;12.50;99.90;;;;;;5074427;28;20477;-57
2024/04/04 03:29:42;;;;;;;1.73;1.10;;;12.50;99.90;;;;;;5074436;28;20763;-58
2024/04/04 03:32:08;;;;;;;3.20;1.70;;;12.50;99.90;;;;;;5074439;28;20447;-57
2024/04/04 03:34:34;;;;;;;2.47;1.57;;;12.50;99.90;;;;;;5074561;28;20296;-58
2024/04/04 03:37:01;;;;;;;4.37;1.47;;;12.50;99.90;;;;;;5074467;28;20556;-58
2024/04/04 03:39:28;;;;;;;2.50;1.27;;;12.40;99.90;;;;;;5074351;28;20209;-57
2024/04/04 03:41:56;;;;;;;4.80;1.30;;;12.40;99.90;;;;;;5074215;28;20436;-57
2024/04/04 03:44:23;;;;;;;6.93;1.57;;;12.30;99.90;;;;;;5074719;28;20440;-58
2024/04/04 03:46:48;;;;;;;3.53;1.20;;;12.30;99.90;;;;;;5074397;28;20441;-58
2024/04/04 03:49:15;;;;;;;3.33;1.70;;;12.30;99.90;;;;;;5074124;28;20467;-58
2024/04/04 03:51:41;;;;;;;2.23;1.00;;;12.40;99.90;;;;;;5074491;28;20209;-58
2024/04/04 03:54:08;;;;;;;2.30;0.90;;;12.40;99.90;;;;;;5066198;28;20999;-58
2024/04/04 03:56:34;;;;;;;3.43;1.40;;;12.30;99.90;;;;;;5073903;28;20218;-58
2024/04/04 03:59:02;;;;;;;5.30;1.67;;;12.40;99.90;;;;;;5073990;28;20471;-58
2024/04/04 04:01:28;;;;;;;5.03;1.30;;;12.30;99.90;;;;;;5074045;28;20576;-58
2024/04/04 04:03:55;;;;;;;1.20;1.00;;;12.40;99.90;;;;;;5074395;28;20437;-57
2024/04/04 04:06:20;;;;;;;2.93;1.33;;;12.30;99.90;;;;;;5073971;28;20256;-57
2024/04/04 04:08:47;;;;;;;6.37;1.57;;;12.30;99.90;;;;;;5073843;28;20460;-57
2024/04/04 04:11:13;;;;;;;2.10;1.00;;;12.40;99.90;;;;;;5073970;28;20198;-57
2024/04/04 04:13:40;;;;;;;5.30;1.67;;;12.40;99.90;;;;;;5074024;28;20451;-57
2024/04/04 04:16:08;;;;;;;3.20;0.93;;;12.40;99.90;;;;;;5074005;28;20204;-57
2024/04/04 04:18:35;;;;;;;5.00;1.20;;;12.40;99.90;;;;;;5073915;28;20833;-57
2024/04/04 04:21:17;;;;;;;2.37;0.80;;;12.50;99.90;;;;;;5073453;28;20483;-57
2024/04/04 04:23:47;;;;;;;3.50;1.23;;;12.50;99.90;;;;;;5073795;28;20432;-57
2024/04/04 04:26:13;;;;;;;3.93;1.57;;;12.50;99.90;;;;;;5073559;28;20895;-57
2024/04/04 04:28:40;;;;;;;3.10;1.30;;;12.60;99.90;;;;;;5073397;28;20469;-57
2024/04/04 04:31:22;;;;;;;2.63;1.20;;;12.60;99.90;;;;;;5073615;28;20206;-57
2024/04/04 04:33:49;;;;;;;1.87;0.97;;;12.60;99.90;;;;;;5073518;28;20429;-57
2024/04/04 04:36:15;;;;;;;7.33;1.70;;;12.70;99.90;;;;;;5073412;28;20441;-57
2024/04/04 04:38:42;;;;;;;3.23;1.10;;;12.70;99.90;;;;;;5073034;28;20489;-57
2024/04/04 04:41:08;;;;;;;3.13;1.23;;;12.80;99.90;;;;;;5073508;28;20668;-57
2024/04/04 04:43:35;;;;;;;3.57;1.40;;;12.80;99.90;;;;;;5073530;28;20445;-57
2024/04/04 04:46:01;;;;;;;4.53;2.10;;;12.80;99.90;;;;;;5073115;28;20442;-58
2024/04/04 04:48:30;;;;;;;6.50;1.80;;;12.80;99.90;;;;;;5073291;28;20556;-57
2024/04/04 04:50:56;;;;;;;3.90;1.50;;;12.70;99.90;;;;;;5073187;28;20198;-57
2024/04/04 04:53:23;;;;;;;5.80;2.30;;;12.80;99.90;;;;;;5073403;28;20449;-57
2024/04/04 04:55:49;;;;;;;2.90;1.00;;;12.80;99.90;;;;;;5073182;28;20206;-57
2024/04/04 04:58:16;;;;;;;4.87;2.10;;;12.80;99.90;;;;;;5073099;28;20488;-57
2024/04/04 05:00:42;;;;;;;6.00;2.90;;;12.80;99.90;;;;;;5073038;28;20947;-57
2024/04/04 05:03:08;;;;;;;8.37;2.60;;;12.80;99.90;;;;;;5073062;28;20818;-57
2024/04/04 05:05:36;;;;;;;5.40;2.37;;;12.80;99.90;;;;;;5073182;28;20440;-57
2024/04/04 05:08:02;;;;;;;8.20;2.20;;;12.90;99.90;;;;;;5073028;28;20257;-57
2024/04/04 05:10:30;;;;;;;6.00;1.90;;;12.90;99.90;;;;;;5073280;28;20451;-57
2024/04/04 05:12:56;;;;;;;7.13;1.80;;;12.90;99.90;;;;;;5072929;28;20478;-58
2024/04/04 05:15:22;;;;;;;4.87;1.40;;;12.90;99.90;;;;;;5073295;28;20440;-58
2024/04/04 05:17:48;;;;;;;5.63;1.00;;;12.90;99.90;;;;;;5073435;28;20229;-58
2024/04/04 05:20:15;;;;;;;4.77;1.20;;;12.90;99.90;;;;;;5073502;28;20447;-58
2024/04/04 05:22:43;;;;;;;4.47;1.10;;;12.90;99.90;;;;;;5073528;28;20209;-58
2024/04/04 05:25:13;;;;;;;6.00;1.67;;;12.90;99.90;;;;;;5073749;28;20448;-57
2024/04/04 05:27:39;;;;;;;3.73;1.17;;;12.90;99.90;;;;;;5073301;28;20487;-57
2024/04/04 05:30:07;;;;;;;2.00;1.00;;;13.00;99.90;;;;;;5073693;28;20527;-58
2024/04/04 05:32:33;;;;;;;4.57;1.57;;;13.00;99.90;;;;;;5073516;28;20202;-57
2024/04/04 05:35:00;;;;;;;5.13;1.27;;;13.00;99.90;;;;;;5073178;28;20528;-58
2024/04/04 05:37:26;;;;;;;2.37;1.20;;;13.00;99.90;;;;;;5073168;28;20317;-57
2024/04/04 05:39:54;;;;;;;3.77;1.37;;;13.00;99.90;;;;;;5073148;28;20531;-58
2024/04/04 05:42:20;;;;;;;8.73;3.43;;;13.10;99.90;;;;;;5072589;28;20575;-58
2024/04/04 05:44:47;;;;;;;5.93;1.70;;;13.00;99.90;;;;;;5072795;28;20531;-58
2024/04/04 05:47:13;;;;;;;8.70;1.77;;;13.10;99.90;;;;;;5076172;28;20224;-58
2024/04/04 05:49:39;;;;;;;6.00;1.77;;;13.10;99.90;;;;;;5076553;28;20440;-58
2024/04/04 05:52:05;;;;;;;7.37;1.87;;;13.10;99.90;;;;;;5076402;28;20213;-58
2024/04/04 05:54:32;;;;;;;12.10;2.90;;;13.10;99.90;;;;;;5076755;28;20436;-57
2024/04/04 05:56:59;;;;;;;9.23;2.70;;;13.20;99.90;;;;;;5076164;28;20483;-57
2024/04/04 05:59:26;;;;;;;9.37;1.70;;;13.20;99.90;;;;;;5076352;28;20451;-57
2024/04/04 06:01:52;;;;;;;11.63;2.00;;;13.20;99.90;;;;;;5076421;28;20531;-58
2024/04/04 06:04:19;;;;;;;5.93;1.80;;;13.20;99.90;;;;;;5076444;28;20535;-58
2024/04/04 06:06:45;;;;;;;3.80;1.50;;;13.20;99.90;;;;;;5076367;28;20212;-58
2024/04/04 06:09:13;;;;;;;5.67;1.97;;;13.30;99.90;;;;;;5076476;28;20437;-58
2024/04/04 06:11:40;;;;;;;7.80;2.37;;;13.30;99.90;;;;;;5076837;28;20507;-59
2024/04/04 06:14:08;;;;;;;6.67;1.60;;;13.30;99.90;;;;;;5076751;28;20444;-58
2024/04/04 06:16:34;;;;;;;5.50;1.47;;;13.30;99.90;;;;;;5076392;28;20444;-57
2024/04/04 06:19:01;;;;;;;6.03;1.83;;;13.40;99.90;;;;;;5076163;28;20480;-58
2024/04/04 06:21:28;;;;;;;4.27;1.23;;;13.40;99.90;;;;;;5076513;28;20444;-57
2024/04/04 06:23:54;;;;;;;7.47;1.90;;;13.40;99.90;;;;;;5075857;28;20448;-57
2024/04/04 06:26:21;;;;;;;8.00;1.90;;;13.40;99.90;;;;;;5076029;28;20444;-58
2024/04/04 06:28:47;;;;;;;4.33;1.90;;;13.40;99.90;;;;;;5075575;28;20303;-57
2024/04/04 06:31:15;;;;;;;4.00;1.27;;;13.50;99.90;;;;;;5075909;28;20476;-57
2024/04/04 06:33:41;;;;;;;2.63;1.17;;;13.50;99.90;;;;;;5075545;28;20203;-57
2024/04/04 06:36:08;;;;;;;4.73;2.10;;;13.50;99.90;;;;;;5075561;28;20447;-58
2024/04/04 06:38:34;;;;;;;3.83;1.30;;;13.50;99.90;;;;;;5075698;28;20245;-57
2024/04/04 06:41:01;;;;;;;4.77;2.17;;;13.50;99.90;;;;;;5075740;28;20926;-58
2024/04/04 06:43:26;;;;;;;3.83;1.40;;;13.50;99.90;;;;;;5076175;28;20590;-57
2024/04/04 06:45:53;;;;;;;3.97;1.27;;;13.50;99.90;;;;;;5075299;28;20444;-57
2024/04/04 06:48:20;;;;;;;4.10;1.37;;;13.50;99.90;;;;;;5075515;28;20309;-58
2024/04/04 06:50:47;;;;;;;5.93;1.60;;;13.50;99.90;;;;;;5075220;28;20818;-58
2024/04/04 06:53:13;;;;;;;5.97;0.97;;;13.50;99.90;;;;;;5075410;28;20441;-58
2024/04/04 06:55:40;;;;;;;3.27;0.87;;;13.60;99.90;;;;;;5075365;28;20463;-58
2024/04/04 06:58:06;;;;;;;6.40;1.00;;;13.60;99.90;;;;;;5075241;28;20229;-58
2024/04/04 07:00:32;;;;;;;7.13;1.00;;;13.70;99.90;;;;;;5075144;28;20437;-57
2024/04/04 07:02:58;;;;;;;1.60;1.00;;;13.70;99.90;;;;;;5075372;28;20679;-57
2024/04/04 07:05:27;;;;;;;2.63;0.90;;;13.70;99.90;;;;;;5075331;28;20445;-57
2024/04/04 07:07:52;;;;;;;3.27;1.67;;;13.70;99.90;;;;;;5075155;28;20222;-57
2024/04/04 07:10:19;;;;;;;4.73;1.03;;;13.70;99.90;;;;;;5074838;28;21057;-57
2024/04/04 07:12:45;;;;;;;1.93;1.10;;;13.80;99.90;;;;;;5075327;28;20207;-57
2024/04/04 07:15:12;;;;;;;2.47;0.80;;;13.80;99.90;;;;;;5074977;28;20437;-57
2024/04/04 07:17:38;;;;;;;3.43;1.50;;;13.70;99.90;;;;;;5074498;28;20485;-57
2024/04/04 07:20:06;;;;;;;2.60;0.90;;;13.80;99.90;;;;;;5074918;28;20437;-58
2024/04/04 07:22:33;;;;;;;4.97;0.93;;;13.80;99.90;;;;;;5075226;28;20213;-57
2024/04/04 07:25:00;;;;;;;1.33;0.80;;;13.80;99.90;;;;;;5074944;28;20471;-57
2024/04/04 07:27:26;;;;;;;2.10;0.90;;;13.80;99.90;;;;;;5074586;28;20559;-57
2024/04/04 07:29:55;;;;;;;2.87;0.93;;;13.80;99.90;;;;;;5074795;28;20532;-57
2024/04/04 07:32:21;;;;;;;2.77;0.70;;;13.80;99.90;;;;;;5074522;28;20206;-57
2024/04/04 07:34:48;;;;;;;1.27;0.37;;;13.80;99.90;;;;;;5074799;28;20447;-57
2024/04/04 07:37:13;;;;;;;2.27;0.90;;;13.80;99.90;;;;;;5074733;28;20241;-57
2024/04/04 07:39:41;;;;;;;2.37;0.80;;;13.80;99.90;;;;;;5074713;28;20440;-57
2024/04/04 07:42:07;;;;;;;1.50;0.93;;;13.80;99.90;;;;;;5074674;28;20202;-57
2024/04/04 07:44:36;;;;;;;4.63;0.90;;;13.80;99.90;;;;;;5074514;28;20443;-59
2024/04/04 07:47:02;;;;;;;6.30;1.50;;;13.80;99.90;;;;;;5074539;28;20210;-62
2024/04/04 07:49:28;;;;;;;3.80;0.80;;;13.80;99.90;;;;;;5074284;28;20452;-57
2024/04/04 07:51:54;;;;;;;2.00;0.70;;;13.80;99.90;;;;;;5074052;28;20202;-57
2024/04/04 07:54:21;;;;;;;2.23;0.70;;;13.70;99.90;;;;;;5074283;28;20847;-58
2024/04/04 07:56:48;;;;;;;0.93;0.60;;;13.60;99.90;;;;;;5074318;28;20441;-57
2024/04/04 07:59:15;;;;;;;1.67;0.50;;;13.50;99.90;;;;;;5071911;28;20840;-58
2024/04/04 08:01:42;;;;;;;0.87;0.40;;;13.50;99.90;;;;;;5073923;28;20527;-59
2024/04/04 08:04:09;;;;;;;1.07;0.40;;;13.30;99.90;;;;;;5073707;28;20958;-57
2024/04/04 08:06:35;;;;;;;0.80;0.30;;;13.30;99.90;;;;;;5073738;28;20957;-57
2024/04/04 08:09:03;;;;;;;1.90;0.50;;;13.20;99.90;;;;;;5073133;28;20464;-57
2024/04/04 08:11:29;;;;;;;0.83;0.30;;;13.20;99.90;;;;;;5073684;28;20253;-57
2024/04/04 08:13:57;;;;;;;1.07;0.40;;;13.10;99.90;;;;;;5073886;28;20480;-57
2024/04/04 08:16:23;;;;;;;2.63;0.43;;;13.10;99.90;;;;;;5073809;28;20202;-57
2024/04/04 08:18:50;;;;;;;1.53;0.43;;;13.10;99.90;;;;;;5073603;28;20484;-57
2024/04/04 08:21:15;;;;;;;1.13;0.30;;;13.10;99.90;;;;;;5073371;28;20676;-58
2024/04/04 08:23:43;;;;;;;1.97;0.47;;;13.10;99.90;;;;;;5073796;28;20439;-58
2024/04/04 08:26:09;;;;;;;0.90;0.40;;;13.20;99.90;;;;;;5066533;28;20202;-58
2024/04/04 08:28:36;;;;;;;1.07;0.40;;;13.30;99.90;;;;;;5073807;28;20531;-58
2024/04/04 08:31:03;;;;;;;1.20;0.40;;;13.40;99.90;;;;;;5073809;28;20206;-58
2024/04/04 08:33:31;;;;;;;1.17;0.90;;;13.50;99.90;;;;;;5073532;28;20535;-57
2024/04/04 08:35:58;;;;;;;5.13;0.50;;;13.70;99.90;;;;;;5074183;28;20512;-58
2024/04/04 08:38:25;;;;;;;0.93;0.50;;;13.80;99.90;;;;;;5073613;28;20925;-58
2024/04/04 08:40:55;;;;;;;0.77;0.50;;;14.00;99.90;;;;;;5073886;28;20440;-59
2024/04/04 08:43:22;;;;;;;2.10;0.50;;;14.20;99.90;;;;;;5073606;28;20532;-57
2024/04/04 08:45:49;;;;;;;0.97;0.60;;;14.30;99.90;;;;;;5073534;28;20514;-57
2024/04/04 08:48:19;;;;;;;0.40;0.30;;;14.40;99.90;;;;;;5073715;28;20460;-57
2024/04/04 08:50:45;;;;;;;0.70;0.50;;;14.30;99.90;;;;;;5073897;28;20444;-57
2024/04/04 08:53:15;;;;;;;0.80;0.30;;;14.20;99.90;;;;;;5073394;28;20484;-56
2024/04/04 08:55:41;;;;;;;0.60;0.40;;;14.10;99.90;;;;;;5072863;28;20476;-56
2024/04/04 08:58:09;;;;;;;0.67;0.40;;;14.10;99.90;;;;;;5073097;28;20508;-56
2024/04/04 09:00:35;;;;;;;1.10;0.30;;;14.10;99.90;;;;;;5073236;28;20202;-56
2024/04/04 09:03:02;;;;;;;1.57;0.50;;;14.10;99.90;;;;;;5073000;28;20965;-58
2024/04/04 09:05:29;;;;;;;1.07;0.43;;;14.00;99.90;;;;;;5073333;28;20198;-58
2024/04/04 09:07:56;;;;;;;3.17;0.40;;;14.00;99.90;;;;;;5072550;28;20464;-56
2024/04/04 09:10:22;;;;;;;1.77;0.60;;;14.10;99.90;;;;;;5072597;28;20943;-57
2024/04/04 09:12:49;;;;;;;2.00;0.40;;;14.30;99.90;;;;;;5072766;28;20444;-57
2024/04/04 09:15:17;;;;;;;1.17;0.50;;;14.30;99.90;;;;;;5072367;28;20573;-56
2024/04/04 09:17:44;;;;;;;1.23;0.43;;;14.40;99.90;;;;;;5072370;28;20512;-57
2024/04/04 09:20:10;;;;;;;1.50;0.50;;;14.50;99.90;;;;;;5071675;28;20451;-56
2024/04/04 09:22:40;;;;;;;2.77;0.67;;;14.60;99.90;;;;;;5072608;28;20444;-57
2024/04/04 09:25:09;;;;;;;1.63;0.70;;;14.90;99.90;;;;;;5072399;28;20245;-57
2024/04/04 09:27:38;;;;;;;1.37;0.60;;;15.10;99.90;;;;;;5072788;28;20898;-56
2024/04/04 09:30:11;;;;;;;1.37;0.40;;;15.20;99.90;;;;;;5072768;28;20484;-56
2024/04/04 09:32:38;;;;;;;0.80;0.40;;;15.30;99.90;;;;;;5072784;28;20425;-57
2024/04/04 09:35:05;;;;;;;1.33;0.60;;;15.40;99.90;;;;;;5072712;28;20445;-56
2024/04/04 09:37:34;;;;;;;4.17;0.90;;;15.40;99.90;;;;;;5072585;28;20460;-56
2024/04/04 09:40:03;;;;;;;1.20;0.63;;;15.60;99.90;;;;;;5072575;28;20453;-56
2024/04/04 09:42:31;;;;;;;1.53;0.53;;;15.70;99.90;;;;;;5072693;28;20538;-55
2024/04/04 09:44:57;;;;;;;1.00;0.50;;;15.70;99.90;;;;;;5072448;28;20448;-56
2024/04/04 09:47:26;;;;;;;2.43;0.40;;;15.50;99.90;;;;;;5072531;28;20482;-55
2024/04/04 09:49:52;;;;;;;2.40;0.53;;;15.50;99.90;;;;;;5072719;28;20210;-55
2024/04/04 09:52:22;;;;;;;1.23;0.50;;;15.50;99.90;;;;;;5072341;28;20948;-55
2024/04/04 09:54:49;;;;;;;1.70;0.50;;;15.50;99.90;;;;;;5072424;28;20441;-55
2024/04/04 09:57:17;;;;;;;1.07;0.40;;;15.40;99.90;;;;;;5072230;28;20491;-55
2024/04/04 09:59:43;;;;;;;1.80;0.40;;;15.30;99.90;;;;;;5072160;28;20510;-55
2024/04/04 10:02:10;;;;;;;0.80;0.70;;;15.30;99.90;;;;;;5072139;28;21009;-55
2024/04/04 10:04:37;;;;;;;1.47;0.40;;;15.30;99.90;;;;;;5072414;28;20256;-55
2024/04/04 10:07:05;;;;;;;2.60;0.60;;;15.30;99.90;;;;;;5071730;28;20469;-55
2024/04/04 10:09:37;;;;;;;2.60;0.70;;;15.40;99.90;;;;;;5072174;28;20433;-55
2024/04/04 10:12:13;;;;;;;2.30;0.93;;;15.40;99.90;;;;;;5072033;28;20487;-55
2024/04/04 10:14:52;;;;;;;1.17;0.53;;;15.40;99.90;;;;;;5072312;28;20431;-56
2024/04/04 10:17:18;;;;;;;1.23;0.57;;;15.40;99.90;;;;;;5071736;28;20556;-56
2024/04/04 10:19:46;;;;;;;2.00;0.70;;;15.40;99.90;;;;;;5072082;28;20508;-56
2024/04/04 10:22:14;;;;;;;2.27;0.53;;;15.40;99.90;;;;;;5072172;28;20819;-56
2024/04/04 10:24:41;;;;;;;2.53;0.70;;;15.40;99.90;;;;;;5072117;28;20449;-56
2024/04/04 10:27:08;;;;;;;1.50;0.90;;;15.40;99.90;;;;;;5071401;28;20853;-56
2024/04/04 10:29:35;;;;;;;8.40;1.20;;;15.40;99.90;;;;;;5072182;28;20445;-55
2024/04/04 10:32:03;;;;;;;2.60;1.30;;;15.50;99.90;;;;;;5073976;28;20487;-56
2024/04/04 10:34:30;;;;;;;2.50;0.80;;;15.60;99.90;;;;;;5075679;28;20459;-55
2024/04/04 10:36:57;;;;;;;2.10;0.63;;;15.90;99.90;;;;;;5075603;28;20444;-56
2024/04/04 10:39:23;;;;;;;1.23;0.50;;;16.40;99.90;;;;;;5075244;28;20993;-55
2024/04/04 10:41:51;;;;;;;2.20;0.90;;;16.70;99.90;;;;;;5075546;28;20451;-55
2024/04/04 10:44:18;;;;;;;2.73;1.13;;;16.80;99.40;;;;;;5075553;28;20202;-55
2024/04/04 10:46:48;;;;;;;1.80;0.90;;;17.00;99.90;;;;;;5075447;28;20448;-56
2024/04/04 10:49:16;;;;;;;2.37;0.80;;;17.00;99.30;;;;;;5075140;28;20461;-56
2024/04/04 10:51:49;;;;;;;2.73;0.93;;;17.00;99.20;;;;;;5075141;28;20970;-56
2024/04/04 10:54:16;;;;;;;2.57;0.73;;;16.90;98.70;;;;;;5075413;28;20436;-56
2024/04/04 10:56:45;;;;;;;0.80;0.50;;;16.90;99.30;;;;;;5075375;28;20476;-56
2024/04/04 10:59:11;;;;;;;2.13;0.70;;;17.00;99.10;;;;;;5074930;28;20503;-56
2024/04/04 11:01:39;;;;;;;3.67;0.53;;;16.90;98.10;;;;;;5075411;28;20456;-57
2024/04/04 11:04:10;;;;;;;2.83;1.20;;;16.80;98.80;;;;;;5075354;28;20801;-58
2024/04/04 11:06:40;;;;;;;3.90;0.60;;;16.80;98.40;;;;;;5075204;28;20921;-55
2024/04/04 11:09:10;;;;;;;2.23;0.80;;;16.60;98.20;;;;;;5074888;28;21046;-56
2024/04/04 11:11:38;;;;;;;2.30;0.93;;;16.50;98.70;;;;;;5075142;28;20516;-55
2024/04/04 11:14:05;;;;;;;0.87;0.50;;;16.20;98.00;;;;;;5074805;28;20977;-55
2024/04/04 11:16:32;;;;;;;0.80;0.50;;;16.00;99.40;;;;;;5074928;28;20448;-58
2024/04/04 11:18:59;;;;;;;2.53;0.80;;;15.70;99.90;;;;;;5074373;28;20834;-57
2024/04/04 11:21:25;;;;;;;1.57;0.40;;;15.50;99.90;;;;;;5074987;28;20444;-57
2024/04/04 11:23:53;;;;;;;0.60;0.40;;;15.30;99.90;;;;;;5074529;28;20448;-57
2024/04/04 11:26:20;;;;;;;1.23;0.40;;;15.10;99.00;;;;;;5074879;28;20455;-56
2024/04/04 11:28:46;;;;;;;0.93;0.50;;;15.00;99.10;;;;;;5074917;28;20473;-56
2024/04/04 11:31:13;;;;;;;1.53;0.43;;;14.90;98.90;;;;;;5074692;28;20451;-56
2024/04/04 11:33:38;;;;;;;2.50;0.50;;;14.80;98.30;;;;;;5074621;28;20447;-58
2024/04/04 11:36:06;;;;;;;1.43;0.60;;;14.80;98.50;;;;;;5074557;28;20448;-55
2024/04/04 11:38:32;;;;;;;2.33;0.60;;;14.70;98.50;;;;;;5074691;28;20226;-55
2024/04/04 11:41:00;;;;;;;2.50;0.50;;;14.60;98.20;;;;;;5074097;28;20574;-56
2024/04/04 11:43:26;;;;;;;1.40;0.60;;;14.50;98.00;;;;;;5073562;28;20284;-56
2024/04/04 11:45:53;;;;;;;2.97;0.43;;;14.50;98.90;;;;;;5074084;28;20479;-56
2024/04/04 11:48:19;;;;;;;1.20;0.40;;;14.50;99.30;;;;;;5074029;28;20465;-56
2024/04/04 11:50:46;;;;;;;1.13;0.43;;;14.40;99.30;;;;;;5074361;28;20498;-56
2024/04/04 11:53:13;;;;;;;0.77;0.40;;;14.40;99.50;;;;;;5073785;28;20556;-57
2024/04/04 11:55:40;;;;;;;2.43;0.50;;;14.40;99.80;;;;;;5074213;28;20456;-56
2024/04/04 11:58:07;;;;;;;2.20;0.50;;;14.30;99.70;;;;;;5073824;28;20461;-56
2024/04/04 12:00:35;;;;;;;5.50;1.10;;;14.20;99.90;;;;;;5073845;28;20935;-56
2024/04/04 12:03:03;;;;;;;2.83;0.90;;;14.00;99.90;;;;;;5074041;28;20449;-56
2024/04/04 12:05:30;;;;;;;2.17;0.60;;;14.10;99.90;;;;;;5073969;28;20448;-56
2024/04/04 12:07:56;;;;;;;4.93;0.90;;;14.10;99.90;;;;;;5073957;28;20463;-56
2024/04/04 12:10:22;;;;;;;2.90;0.90;;;14.20;99.90;;;;;;5073880;28;20440;-56
2024/04/04 12:12:48;;;;;;;4.47;1.03;;;14.20;99.90;;;;;;5073927;28;20203;-56
2024/04/04 12:15:16;;;;;;;2.50;0.93;;;14.20;99.90;;;;;;5073582;28;20965;-56
2024/04/04 12:17:42;;;;;;;3.07;0.70;;;14.20;99.90;;;;;;5073404;28;20227;-56
2024/04/04 12:20:09;;;;;;;3.57;0.80;;;14.30;99.90;;;;;;5073391;28;20487;-56
2024/04/04 12:22:37;;;;;;;5.17;1.13;;;14.40;99.90;;;;;;5073793;28;20233;-56
2024/04/04 12:25:05;;;;;;;2.43;0.80;;;14.40;99.90;;;;;;5073309;28;20841;-56
2024/04/04 12:27:31;;;;;;;4.10;1.23;;;14.50;99.90;;;;;;5073427;28;20479;-55
2024/04/04 12:29:58;;;;;;;3.10;0.93;;;14.70;99.90;;;;;;5073322;28;20471;-56
2024/04/04 12:32:25;;;;;;;4.67;1.20;;;14.80;99.90;;;;;;5073529;28;20828;-55
2024/04/04 12:34:52;;;;;;;6.60;2.20;;;15.00;99.90;;;;;;5073204;28;20453;-56
2024/04/04 12:37:19;;;;;;;7.80;1.57;;;15.20;99.90;;;;;;5073546;28;20465;-56
2024/04/04 12:39:45;;;;;;;4.10;1.17;;;15.60;99.90;;;;;;5072982;28;20477;-55
2024/04/04 12:42:11;;;;;;;3.73;1.50;;;16.10;99.20;;;;;;5073198;28;20958;-56
2024/04/04 12:44:44;;;;;;;4.13;1.10;;;17.20;97.90;;;;;;5073577;28;20440;-56